createdAt,value
2018-06-12T00:01:58.816Z,5.03
2018-06-12T00:04:27.451Z,10.87
2018-06-12T00:06:56.061Z,9.90
2018-06-12T00:09:24.724Z,6.37
2018-06-12T00:11:53.428Z,7.37
2018-06-12T00:14:21.940Z,9.67
2018-06-12T00:16:50.627Z,10.53
2018-06-12T00:19:19.250Z,9.73
2018-06-12T00:21:47.917Z,9.20
2018-06-12T00:24:16.497Z,10.20
2018-06-12T00:26:45.083Z,9.73
2018-06-12T00:29:13.676Z,9.97
2018-06-12T00:31:42.263Z,14.07
2018-06-12T00:34:10.971Z,6.17
2018-06-12T00:36:39.721Z,5.63
2018-06-12T00:39:08.930Z,6.37
2018-06-12T00:41:37.603Z,7.10
2018-06-12T00:44:06.273Z,11.60
2018-06-12T00:46:34.876Z,7.17
2018-06-12T00:49:03.555Z,7.10
2018-06-12T00:51:32.194Z,5.93
2018-06-12T00:54:00.834Z,10.20
2018-06-12T00:56:40.470Z,11.67
2018-06-12T00:59:09.085Z,8.17
2018-06-12T01:01:37.687Z,10.73
2018-06-12T01:04:06.482Z,9.97
2018-06-12T01:06:35.046Z,9.10
2018-06-12T01:09:05.218Z,13.80
2018-06-12T01:11:33.869Z,8.50
2018-06-12T01:14:02.178Z,7.07
2018-06-12T01:16:30.772Z,6.87
2018-06-12T01:18:59.387Z,12.67
2018-06-12T01:21:27.889Z,9.70
2018-06-12T01:23:56.516Z,13.17
2018-06-12T01:26:25.156Z,10.37
2018-06-12T01:28:53.749Z,12.20
2018-06-12T01:31:22.340Z,12.80
2018-06-12T01:33:50.943Z,9.83
2018-06-12T01:36:19.746Z,8.97
2018-06-12T01:38:48.620Z,15.03
2018-06-12T01:41:18.232Z,12.53
2018-06-12T01:43:47.039Z,10.10
2018-06-12T01:46:15.892Z,8.33
2018-06-12T01:48:45.735Z,8.57
2018-06-12T01:51:14.423Z,10.03
2018-06-12T01:53:43.655Z,8.53
2018-06-12T01:56:12.547Z,12.33
2018-06-12T01:58:41.338Z,15.70
2018-06-12T02:01:10.082Z,12.70
2018-06-12T02:03:38.965Z,12.23
2018-06-12T02:06:07.304Z,10.60
2018-06-12T02:08:36.100Z,8.97
2018-06-12T02:11:05.957Z,12.40
2018-06-12T02:13:34.859Z,11.47
2018-06-12T02:16:04.455Z,14.07
2018-06-12T02:18:33.149Z,12.60
2018-06-12T02:21:01.888Z,11.93
2018-06-12T02:23:30.703Z,12.53
2018-06-12T02:25:59.306Z,13.13
2018-06-12T02:28:27.991Z,11.13
2018-06-12T02:30:56.823Z,7.30
2018-06-12T02:33:26.343Z,8.63
2018-06-12T02:35:55.082Z,7.60
2018-06-12T02:38:23.943Z,14.23
2018-06-12T02:40:52.364Z,7.87
2018-06-12T02:43:21.211Z,11.10
2018-06-12T02:45:50.021Z,8.73
2018-06-12T02:48:19.539Z,10.00
2018-06-12T02:50:48.973Z,9.23
2018-06-12T02:53:17.732Z,9.83
2018-06-12T02:55:46.428Z,5.57
2018-06-12T02:58:15.234Z,7.70
2018-06-12T03:00:43.988Z,7.67
2018-06-12T03:03:12.839Z,10.63
2018-06-12T03:05:41.692Z,6.93
2018-06-12T03:08:10.265Z,9.87
2018-06-12T03:10:39.160Z,9.43
2018-06-12T03:13:07.991Z,8.93
2018-06-12T03:15:36.852Z,9.97
2018-06-12T03:18:06.335Z,9.30
2018-06-12T03:20:44.071Z,10.00
2018-06-12T03:23:13.054Z,8.13
2018-06-12T03:25:41.770Z,12.50
2018-06-12T03:28:10.586Z,7.90
2018-06-12T03:30:39.421Z,9.30
2018-06-12T03:33:09.025Z,9.17
2018-06-12T03:35:37.526Z,8.53
2018-06-12T03:38:05.863Z,8.03
2018-06-12T03:40:34.598Z,7.67
2018-06-12T03:43:03.050Z,9.70
2018-06-12T03:45:32.479Z,9.90
2018-06-12T03:48:01.037Z,7.83
2018-06-12T03:50:29.615Z,9.20
2018-06-12T03:52:58.143Z,8.17
2018-06-12T03:55:26.640Z,12.07
2018-06-12T03:57:55.079Z,10.73
2018-06-12T04:00:23.664Z,9.33
2018-06-12T04:02:52.189Z,9.17
2018-06-12T04:05:20.767Z,10.73
2018-06-12T04:07:49.227Z,7.73
2018-06-12T04:10:17.740Z,8.10
2018-06-12T04:12:46.263Z,9.53
2018-06-12T04:15:14.782Z,9.00
2018-06-12T04:17:43.275Z,10.90
2018-06-12T04:20:11.622Z,11.77
2018-06-12T04:22:40.188Z,9.43
2018-06-12T04:25:08.798Z,6.77
2018-06-12T04:27:37.496Z,9.47
2018-06-12T04:30:06.239Z,6.80
2018-06-12T04:32:34.846Z,9.27
2018-06-12T04:35:03.531Z,9.73
2018-06-12T04:37:32.307Z,11.60
2018-06-12T04:40:00.908Z,5.77
2018-06-12T04:42:29.467Z,11.43
2018-06-12T04:44:58.058Z,13.83
2018-06-12T04:47:26.735Z,6.47
2018-06-12T04:49:55.368Z,9.50
2018-06-12T04:52:24.003Z,10.50
2018-06-12T04:54:52.663Z,11.93
2018-06-12T04:57:21.326Z,6.40
2018-06-12T04:59:50.005Z,9.33
2018-06-12T05:02:18.219Z,7.00
2018-06-12T05:04:46.822Z,8.73
2018-06-12T05:07:15.455Z,9.17
2018-06-12T05:09:44.442Z,8.83
2018-06-12T05:12:13.303Z,10.17
2018-06-12T05:14:42.276Z,10.93
2018-06-12T05:17:11.326Z,7.17
2018-06-12T05:19:40.772Z,9.23
2018-06-12T05:22:09.554Z,8.03
2018-06-12T05:24:38.461Z,8.70
2018-06-12T05:27:07.303Z,8.33
2018-06-12T05:29:36.937Z,7.40
2018-06-12T05:32:27.048Z,9.67
2018-06-12T05:36:09.070Z,13.50
2018-06-12T05:38:37.702Z,7.43
2018-06-12T05:41:06.702Z,9.37
2018-06-12T05:43:35.497Z,9.17
2018-06-12T05:46:04.257Z,9.77
2018-06-12T05:48:32.972Z,11.03
2018-06-12T05:51:01.659Z,12.20
2018-06-12T05:53:30.326Z,12.33
2018-06-12T05:55:59.008Z,12.80
2018-06-12T05:58:27.638Z,13.17
2018-06-12T06:00:56.256Z,12.00
2018-06-12T06:03:24.859Z,12.37
2018-06-12T06:05:53.458Z,12.03
2018-06-12T06:08:22.071Z,6.73
2018-06-12T06:10:50.663Z,12.67
2018-06-12T06:13:19.311Z,10.40
2018-06-12T06:15:47.919Z,10.20
2018-06-12T06:18:16.550Z,7.77
2018-06-12T06:20:45.217Z,10.70
2018-06-12T06:23:13.757Z,11.67
2018-06-12T06:25:42.574Z,9.13
2018-06-12T06:28:11.241Z,9.77
2018-06-12T06:30:39.868Z,9.93
2018-06-12T06:33:08.474Z,13.47
2018-06-12T06:35:37.084Z,9.07
2018-06-12T06:38:05.788Z,8.03
2018-06-12T06:40:34.305Z,11.63
2018-06-12T06:43:03.069Z,9.13
2018-06-12T06:45:31.715Z,10.40
2018-06-12T06:48:00.290Z,11.83
2018-06-12T06:50:29.010Z,11.40
2018-06-12T06:52:57.625Z,8.83
2018-06-12T06:55:26.193Z,8.90
2018-06-12T06:57:56.592Z,8.87
2018-06-12T07:00:25.312Z,8.87
2018-06-12T07:02:53.959Z,6.83
2018-06-12T07:05:22.555Z,8.30
2018-06-12T07:07:51.191Z,5.63
2018-06-12T07:10:19.741Z,5.73
2018-06-12T07:12:48.415Z,6.17
2018-06-12T07:15:17.060Z,7.37
2018-06-12T07:17:45.621Z,7.67
2018-06-12T07:20:24.091Z,11.57
2018-06-12T07:22:52.701Z,8.83
2018-06-12T07:25:21.326Z,12.13
2018-06-12T07:27:49.991Z,8.23
2018-06-12T07:30:18.616Z,9.93
2018-06-12T07:32:47.190Z,8.63
2018-06-12T07:35:15.835Z,7.47
2018-06-12T07:37:44.612Z,9.23
2018-06-12T07:40:13.267Z,11.07
2018-06-12T07:42:41.835Z,13.13
2018-06-12T07:45:10.046Z,10.83
2018-06-12T07:47:38.566Z,6.67
2018-06-12T07:50:07.194Z,8.27
2018-06-12T07:52:35.834Z,7.63
2018-06-12T07:55:04.517Z,8.43
2018-06-12T07:57:33.150Z,11.47
2018-06-12T08:00:01.787Z,8.53
2018-06-12T08:02:30.300Z,10.10
2018-06-12T08:04:59.032Z,9.93
2018-06-12T08:07:27.701Z,10.00
2018-06-12T08:09:56.372Z,7.43
2018-06-12T08:12:25.034Z,14.20
2018-06-12T08:14:53.717Z,12.63
2018-06-12T08:17:22.854Z,10.80
2018-06-12T08:19:51.399Z,9.73
2018-06-12T08:22:20.189Z,11.33
2018-06-12T08:24:48.706Z,11.17
2018-06-12T08:27:17.335Z,8.83
2018-06-12T08:29:45.938Z,8.33
2018-06-12T08:32:14.428Z,13.07
2018-06-12T08:34:43.276Z,10.30
2018-06-12T08:37:11.917Z,8.00
2018-06-12T08:39:40.380Z,8.87
2018-06-12T08:42:09.033Z,6.30
2018-06-12T08:44:37.505Z,8.47
2018-06-12T08:47:06.049Z,8.40
2018-06-12T08:49:34.562Z,6.03
2018-06-12T08:52:03.154Z,7.33
2018-06-12T08:54:31.695Z,8.80
2018-06-12T08:57:00.436Z,9.53
2018-06-12T08:59:29.060Z,11.37
2018-06-12T09:01:57.531Z,6.33
2018-06-12T09:04:26.866Z,7.03
2018-06-12T09:06:55.504Z,11.63
2018-06-12T09:09:24.139Z,8.60
2018-06-12T09:11:52.873Z,6.30
2018-06-12T09:14:21.629Z,10.60
2018-06-12T09:16:50.301Z,7.50
2018-06-12T09:19:18.933Z,8.80
2018-06-12T09:21:47.570Z,6.60
2018-06-12T09:24:16.200Z,6.63
2018-06-12T09:26:44.812Z,9.93
2018-06-12T09:29:13.398Z,10.17
2018-06-12T09:31:41.971Z,9.53
2018-06-12T09:34:12.311Z,6.67
2018-06-12T09:36:40.932Z,6.43
2018-06-12T09:39:09.323Z,4.43
2018-06-12T09:41:37.934Z,5.33
2018-06-12T09:44:06.638Z,4.73
2018-06-12T09:46:35.231Z,5.17
2018-06-12T09:49:03.864Z,5.17
2018-06-12T09:51:32.683Z,4.93
2018-06-12T09:54:01.352Z,3.27
2018-06-12T09:56:29.924Z,4.93
2018-06-12T09:58:58.485Z,5.30
2018-06-12T10:01:27.431Z,3.23
2018-06-12T10:03:56.514Z,5.17
2018-06-12T10:06:29.909Z,4.03
2018-06-12T10:08:58.422Z,5.23
2018-06-12T10:11:26.942Z,2.30
2018-06-12T10:13:55.418Z,2.87
2018-06-12T10:16:24.855Z,2.10
2018-06-12T10:18:53.394Z,7.37
2018-06-12T10:21:21.914Z,4.90
2018-06-12T10:23:50.799Z,4.70
2018-06-12T10:26:19.451Z,2.63
2018-06-12T10:28:50.788Z,5.53
2018-06-12T10:31:19.308Z,5.13
2018-06-12T10:33:47.798Z,2.27
2018-06-12T10:36:16.267Z,1.97
2018-06-12T10:38:44.779Z,3.63
2018-06-12T10:41:13.359Z,2.13
2018-06-12T10:43:41.922Z,1.67
2018-06-12T10:46:13.520Z,2.27
2018-06-12T10:48:42.145Z,2.23
2018-06-12T10:51:10.588Z,2.43
2018-06-12T10:53:39.056Z,4.27
2018-06-12T10:56:07.660Z,2.33
2018-06-12T10:58:36.442Z,5.23
2018-06-12T11:01:04.785Z,2.20
2018-06-12T11:03:33.335Z,3.17
2018-06-12T11:06:01.926Z,2.77
2018-06-12T11:08:30.470Z,4.93
2018-06-12T11:10:59.067Z,2.33
2018-06-12T11:13:27.555Z,1.90
2018-06-12T11:15:56.048Z,5.47
2018-06-12T11:18:24.638Z,2.70
2018-06-12T11:20:53.140Z,1.63
2018-06-12T11:23:21.653Z,2.53
2018-06-12T11:25:50.202Z,1.40
2018-06-12T11:28:18.763Z,2.47
2018-06-12T11:30:47.233Z,1.80
2018-06-12T11:33:15.702Z,5.53
2018-06-12T11:35:44.155Z,1.17
2018-06-12T11:38:12.697Z,3.27
2018-06-12T11:40:41.273Z,1.63
2018-06-12T11:43:09.793Z,3.67
2018-06-12T11:45:37.927Z,3.37
2018-06-12T11:48:06.458Z,1.67
2018-06-12T11:50:35.126Z,5.27
2018-06-12T11:53:03.666Z,5.20
2018-06-12T11:55:32.242Z,3.40
2018-06-12T11:58:00.740Z,4.47
2018-06-12T12:00:29.307Z,5.00
2018-06-12T12:02:57.995Z,7.20
2018-06-12T12:05:26.775Z,3.60
2018-06-12T12:07:55.481Z,3.53
2018-06-12T12:10:24.183Z,4.50
2018-06-12T12:12:52.861Z,2.03
2018-06-12T12:15:21.574Z,3.13
2018-06-12T12:17:50.227Z,4.50
2018-06-12T12:20:18.796Z,2.77
2018-06-12T12:22:47.400Z,1.67
2018-06-12T12:25:16.014Z,3.03
2018-06-12T12:27:44.667Z,3.43
2018-06-12T12:30:13.303Z,3.10
2018-06-12T12:32:42.043Z,1.53
2018-06-12T12:35:10.586Z,2.47
2018-06-12T12:37:39.118Z,1.57
2018-06-12T12:40:07.794Z,3.17
2018-06-12T12:42:48.620Z,2.70
2018-06-12T12:45:22.523Z,4.30
2018-06-12T13:05:15.377Z,3.83
2018-06-12T13:25:11.245Z,2.60
2018-06-12T13:45:07.564Z,6.40
2018-06-12T14:04:53.357Z,2.37
2018-06-12T14:27:41.553Z,5.03
2018-06-12T14:30:18.285Z,6.37
2018-06-12T14:32:55.281Z,5.03
2018-06-12T14:35:31.855Z,4.10
2018-06-12T14:55:26.623Z,4.70
2018-06-12T15:15:19.808Z,8.70
2018-06-12T15:35:15.046Z,3.93
2018-06-12T15:54:59.804Z,3.00
2018-06-12T15:57:39.873Z,7.97
2018-06-12T16:00:16.996Z,4.90
2018-06-12T16:02:52.101Z,7.83
2018-06-12T16:05:29.757Z,4.03
2018-06-12T16:25:23.538Z,3.30
2018-06-12T16:27:58.982Z,5.90
2018-06-12T16:30:35.667Z,5.53
2018-06-12T16:33:16.236Z,3.23
2018-06-12T16:35:54.829Z,4.20
2018-06-12T16:55:46.460Z,4.53
2018-06-12T17:15:39.590Z,5.77
2018-06-12T17:35:32.175Z,4.20
2018-06-12T17:55:23.886Z,3.90
2018-06-12T18:15:11.454Z,4.87
2018-06-12T18:35:05.522Z,3.30
2018-06-12T18:55:01.151Z,7.17
2018-06-12T19:14:52.777Z,4.50
2018-06-12T19:34:47.479Z,3.43
2018-06-12T19:54:39.438Z,2.67
2018-06-12T20:14:32.918Z,9.33
2018-06-12T20:34:25.135Z,9.40
2018-06-12T20:54:16.467Z,4.63
2018-06-12T21:14:09.330Z,3.67
2018-06-12T21:34:02.395Z,3.53
2018-06-12T21:36:38.242Z,4.27
2018-06-12T21:39:14.302Z,2.70
2018-06-12T21:41:48.212Z,3.73
2018-06-12T21:44:21.495Z,4.70
2018-06-12T22:03:55.005Z,5.57
2018-06-12T22:06:32.615Z,5.23
2018-06-12T22:09:08.687Z,6.03
2018-06-12T22:11:45.332Z,4.43
2018-06-12T22:14:21.388Z,6.07
2018-06-12T22:34:13.937Z,5.30
2018-06-12T22:54:07.076Z,6.03
2018-06-12T22:56:43.784Z,5.83
2018-06-12T22:59:20.757Z,6.27
2018-06-12T23:01:58.325Z,6.33
2018-06-12T23:04:35.024Z,3.63
2018-06-12T23:24:27.583Z,5.33
2018-06-12T23:44:23.653Z,2.70
